Time;durP1;ratioP1;P1;durP2;ratioP2;P2;SDS_P1;SDS_P2;PMS_P1;PMS_P2;Temp;Humidity;BMP_temperature;BMP_pressure;BME280_temperature;BME280_humidity;BME280_pressure;Samples;Min_cycle;Max_cycle;Signal;HPM_P1;HPM_P2
2022/10/09 00:01:24;;;;;;;9.00;5.17;;;7.60;99.90;;;;;;5025025;28;20258;-73
2022/10/09 00:03:53;;;;;;;10.67;4.57;;;7.60;99.90;;;;;;5024324;28;20215;-72
2022/10/09 00:06:21;;;;;;;8.80;5.10;;;7.60;99.90;;;;;;5024669;28;20431;-72
2022/10/09 00:08:47;;;;;;;7.20;4.13;;;7.60;99.90;;;;;;5024133;28;20430;-72
2022/10/09 00:11:16;;;;;;;15.23;4.67;;;7.60;99.90;;;;;;5022068;28;20436;-72
2022/10/09 00:13:42;;;;;;;5.70;4.40;;;7.50;99.90;;;;;;5024078;28;20193;-72
2022/10/09 00:16:10;;;;;;;7.97;4.27;;;7.50;99.90;;;;;;5022958;28;20419;-72
2022/10/09 00:18:36;;;;;;;5.23;4.00;;;7.40;99.90;;;;;;5028865;28;20181;-72
2022/10/09 00:21:03;;;;;;;5.30;4.77;;;7.40;99.90;;;;;;5022707;28;20462;-71
2022/10/09 00:23:28;;;;;;;7.43;4.37;;;7.40;99.90;;;;;;5023867;28;20477;-72
2022/10/09 00:26:01;;;;;;;7.73;4.10;;;7.40;99.90;;;;;;5022657;28;21610;-71
2022/10/09 00:28:29;;;;;;;4.77;4.27;;;7.40;99.90;;;;;;5024002;28;20181;-73
2022/10/09 00:30:55;;;;;;;6.20;5.00;;;7.30;99.90;;;;;;5022317;28;20425;-71
2022/10/09 00:33:21;;;;;;;9.63;4.87;;;7.30;99.90;;;;;;5023521;28;20559;-73
2022/10/09 00:35:47;;;;;;;9.33;4.10;;;7.30;99.90;;;;;;5021921;28;20189;-71
2022/10/09 00:38:13;;;;;;;8.13;4.13;;;7.30;99.90;;;;;;5023602;28;20221;-72
2022/10/09 00:40:39;;;;;;;6.30;4.53;;;7.20;99.90;;;;;;5022793;28;20457;-69
2022/10/09 00:43:16;;;;;;;6.60;4.67;;;7.20;99.90;;;;;;5022174;28;20525;-72
2022/10/09 00:45:53;;;;;;;9.17;5.10;;;7.10;99.90;;;;;;5022224;28;20515;-73
2022/10/09 00:48:19;;;;;;;5.33;4.40;;;7.10;99.90;;;;;;5013043;28;20486;-72
2022/10/09 00:50:55;;;;;;;5.00;4.57;;;7.10;99.90;;;;;;5021317;28;20459;-72
2022/10/09 00:53:23;;;;;;;5.33;4.80;;;7.00;99.90;;;;;;5012114;28;20459;-72
2022/10/09 00:55:48;;;;;;;8.43;6.10;;;7.00;99.90;;;;;;5021148;28;20478;-73
2022/10/09 00:58:14;;;;;;;8.10;4.50;;;7.00;99.90;;;;;;5023371;28;20939;-72
2022/10/09 02:31:39;;;;;;;9.63;5.43;;;6.20;99.90;;;;;;5742416;22;20526;-73
2022/10/09 02:34:08;;;;;;;5.80;5.20;;;6.10;99.90;;;;;;4996940;28;20473;-70
2022/10/09 02:36:34;;;;;;;10.17;5.00;;;6.10;99.90;;;;;;5012893;28;20788;-71
2022/10/09 02:39:01;;;;;;;10.63;5.20;;;6.10;99.90;;;;;;5009831;28;20923;-70
2022/10/09 02:41:26;;;;;;;7.67;5.10;;;6.10;99.90;;;;;;5026340;28;20412;-71
2022/10/09 02:43:52;;;;;;;6.20;4.90;;;6.00;99.90;;;;;;5016691;28;20513;-71
2022/10/09 02:46:18;;;;;;;11.03;5.43;;;6.00;99.90;;;;;;5017118;28;20274;-73
2022/10/09 02:48:44;;;;;;;8.80;5.20;;;5.90;99.90;;;;;;5006858;28;20992;-71
2022/10/09 02:51:10;;;;;;;7.83;4.90;;;5.90;99.90;;;;;;5025600;28;20226;-71
2022/10/09 02:53:35;;;;;;;7.87;4.60;;;5.90;99.90;;;;;;5023862;28;20204;-71
2022/10/09 02:56:01;;;;;;;7.47;4.60;;;5.90;99.90;;;;;;5023344;28;20239;-72
2022/10/09 02:58:30;;;;;;;10.87;5.43;;;5.90;99.90;;;;;;5025815;28;20176;-72
2022/10/09 03:00:55;;;;;;;12.90;5.60;;;5.90;99.90;;;;;;5021531;28;20894;-72
2022/10/09 03:03:21;;;;;;;8.93;5.30;;;5.80;99.90;;;;;;5026095;28;20511;-71
2022/10/09 03:05:46;;;;;;;8.73;5.00;;;5.80;99.90;;;;;;5022404;28;20184;-71
2022/10/09 03:08:12;;;;;;;7.50;5.17;;;5.80;99.90;;;;;;5025327;28;20191;-72
2022/10/09 03:10:39;;;;;;;9.87;6.70;;;5.80;99.90;;;;;;5012314;28;20600;-72
2022/10/09 03:13:05;;;;;;;7.03;5.47;;;5.70;99.90;;;;;;5020922;28;20443;-71
2022/10/09 03:15:35;;;;;;;9.73;5.67;;;5.70;99.90;;;;;;5022020;28;20431;-71
2022/10/09 03:18:01;;;;;;;7.50;5.90;;;5.70;99.90;;;;;;5024030;28;20408;-71
2022/10/09 03:20:29;;;;;;;19.90;6.20;;;5.70;99.90;;;;;;5014221;28;20772;-72
2022/10/09 03:22:55;;;;;;;7.00;6.07;;;5.70;99.90;;;;;;5020601;28;20217;-71
2022/10/09 03:25:21;;;;;;;8.57;5.33;;;5.70;99.90;;;;;;5006292;28;20757;-72
2022/10/09 03:27:46;;;;;;;6.83;5.47;;;5.70;99.90;;;;;;5020878;28;20434;-70
2022/10/09 03:30:12;;;;;;;16.43;5.77;;;5.60;99.90;;;;;;5016490;28;20183;-71
2022/10/09 03:32:37;;;;;;;6.33;5.00;;;5.60;99.90;;;;;;5008440;28;20219;-72
2022/10/09 03:35:03;;;;;;;6.97;4.90;;;5.60;99.90;;;;;;5017479;28;20554;-71
2022/10/09 03:37:30;;;;;;;7.03;5.20;;;5.60;99.90;;;;;;5014919;28;20186;-71
2022/10/09 03:39:56;;;;;;;6.67;5.17;;;5.60;99.90;;;;;;5016131;28;20759;-71
2022/10/09 03:42:21;;;;;;;6.47;5.17;;;5.50;99.90;;;;;;5007560;28;20446;-71
2022/10/09 03:44:47;;;;;;;11.87;5.50;;;5.50;99.90;;;;;;5014777;28;20185;-70
2022/10/09 03:47:12;;;;;;;5.70;5.03;;;5.50;99.90;;;;;;5012519;28;20184;-71
2022/10/09 03:49:38;;;;;;;7.10;5.10;;;5.40;99.90;;;;;;5024742;28;20189;-71
2022/10/09 03:52:03;;;;;;;5.93;5.30;;;5.40;99.90;;;;;;5019939;28;20589;-71
2022/10/09 03:54:29;;;;;;;6.43;4.97;;;5.40;99.90;;;;;;5013613;28;20721;-71
2022/10/09 03:56:54;;;;;;;7.70;4.30;;;5.50;99.90;;;;;;5009095;28;20205;-71
2022/10/09 03:59:20;;;;;;;5.70;5.20;;;5.50;99.90;;;;;;5024572;28;20185;-71
2022/10/09 04:01:45;;;;;;;5.03;4.53;;;5.40;99.90;;;;;;5021530;28;20198;-71
2022/10/09 04:04:11;;;;;;;7.50;5.30;;;5.40;99.90;;;;;;5011786;28;20191;-71
2022/10/09 04:06:36;;;;;;;6.40;4.40;;;5.40;99.90;;;;;;5023581;28;20178;-71
2022/10/09 04:09:02;;;;;;;11.67;5.70;;;5.30;99.90;;;;;;5021831;28;20200;-70
2022/10/09 04:11:27;;;;;;;8.77;4.80;;;5.30;99.90;;;;;;5024347;28;20677;-71
2022/10/09 04:13:53;;;;;;;5.07;4.60;;;5.30;99.90;;;;;;5010883;28;20231;-70
2022/10/09 04:16:18;;;;;;;6.60;5.70;;;5.30;99.90;;;;;;5005512;28;20179;-71
2022/10/09 04:18:44;;;;;;;7.13;5.27;;;5.30;99.90;;;;;;5020768;28;20263;-71
2022/10/09 04:21:11;;;;;;;8.33;4.80;;;5.30;99.90;;;;;;5023709;28;20307;-71
2022/10/09 04:23:37;;;;;;;5.77;4.13;;;5.30;99.90;;;;;;5012136;28;20206;-72
2022/10/09 04:26:04;;;;;;;7.93;5.07;;;5.20;99.90;;;;;;5022048;28;20482;-71
2022/10/09 04:28:30;;;;;;;6.53;4.33;;;5.20;99.90;;;;;;5013757;28;20426;-72
2022/10/09 04:30:57;;;;;;;5.03;4.40;;;5.20;99.90;;;;;;5019745;28;20502;-72
2022/10/09 04:33:23;;;;;;;6.10;5.23;;;5.10;99.90;;;;;;5006148;28;20458;-71
2022/10/09 04:35:50;;;;;;;6.30;5.07;;;5.10;99.90;;;;;;5012983;28;20431;-71
2022/10/09 04:38:16;;;;;;;8.63;5.37;;;5.10;99.90;;;;;;5020627;28;20385;-72
2022/10/09 04:40:41;;;;;;;13.00;5.80;;;5.10;99.90;;;;;;5020443;28;20428;-71
2022/10/09 04:43:07;;;;;;;7.93;5.20;;;5.10;99.90;;;;;;5016860;28;20327;-71
2022/10/09 04:45:33;;;;;;;7.10;4.80;;;5.10;99.90;;;;;;5008846;28;20186;-71
2022/10/09 04:47:58;;;;;;;6.67;4.93;;;5.10;99.90;;;;;;5014484;28;20704;-71
2022/10/09 04:50:24;;;;;;;7.87;5.17;;;5.10;99.90;;;;;;5009567;28;20199;-71
2022/10/09 04:52:49;;;;;;;8.80;4.60;;;5.10;99.90;;;;;;4999582;28;20212;-71
2022/10/09 04:55:15;;;;;;;6.13;5.10;;;5.10;99.90;;;;;;5011643;28;20549;-71
2022/10/09 04:57:40;;;;;;;5.87;3.93;;;5.10;99.90;;;;;;5023694;28;20231;-72
2022/10/09 05:00:07;;;;;;;6.00;4.53;;;5.10;99.90;;;;;;5019770;28;20664;-71
2022/10/09 05:02:32;;;;;;;4.57;4.13;;;5.10;99.90;;;;;;5013898;28;20222;-71
2022/10/09 05:04:58;;;;;;;6.73;4.70;;;5.10;99.90;;;;;;5021513;28;20794;-71
2022/10/09 05:07:23;;;;;;;10.70;5.77;;;5.10;99.90;;;;;;5009289;28;20608;-72
2022/10/09 05:09:49;;;;;;;10.10;6.40;;;5.00;99.90;;;;;;5006486;28;20751;-71
2022/10/09 05:12:15;;;;;;;7.97;4.87;;;5.00;99.90;;;;;;5023250;28;20214;-71
2022/10/09 05:14:40;;;;;;;7.53;5.30;;;4.90;99.90;;;;;;5023332;28;20236;-71
2022/10/09 05:17:06;;;;;;;8.67;5.80;;;4.90;99.90;;;;;;5010477;28;20433;-71
2022/10/09 05:19:32;;;;;;;10.20;5.97;;;4.90;99.90;;;;;;5002495;28;20543;-72
2022/10/09 05:21:59;;;;;;;6.20;5.37;;;4.90;99.90;;;;;;5021292;28;20221;-71
2022/10/09 05:24:25;;;;;;;6.77;5.00;;;4.90;99.90;;;;;;5022897;28;20424;-72
2022/10/09 05:26:51;;;;;;;5.60;5.00;;;4.90;99.90;;;;;;5013242;28;20438;-72
2022/10/09 05:29:16;;;;;;;9.40;6.20;;;4.90;99.90;;;;;;5006429;28;20988;-72
2022/10/09 05:31:42;;;;;;;8.00;6.13;;;4.90;99.90;;;;;;5019505;28;20849;-72
2022/10/09 05:34:08;;;;;;;9.23;6.40;;;4.90;99.90;;;;;;5022222;28;20214;-71
2022/10/09 05:36:34;;;;;;;13.47;7.00;;;4.90;99.90;;;;;;5015245;28;20744;-71
2022/10/09 05:39:00;;;;;;;10.30;6.60;;;4.90;99.90;;;;;;5019874;28;20192;-71
2022/10/09 05:41:27;;;;;;;13.57;7.40;;;4.90;99.90;;;;;;5016993;28;20233;-71
2022/10/09 05:43:52;;;;;;;11.40;7.00;;;4.90;99.90;;;;;;5017036;28;20435;-71
2022/10/09 05:46:23;;;;;;;11.10;6.30;;;4.90;99.90;;;;;;5015346;28;20728;-71
2022/10/09 05:49:06;;;;;;;27.30;8.27;;;4.90;99.90;;;;;;5017195;28;20190;-71
2022/10/09 05:51:34;;;;;;;19.20;7.57;;;4.90;99.90;;;;;;5017027;28;21170;-71
2022/10/09 05:54:00;;;;;;;27.63;8.53;;;4.90;99.90;;;;;;5019558;28;20471;-71
2022/10/09 05:56:28;;;;;;;14.80;6.87;;;5.00;99.90;;;;;;5018808;28;20395;-72
2022/10/09 05:59:05;;;;;;;12.97;6.77;;;5.00;99.90;;;;;;5018340;28;20938;-72
2022/10/09 06:01:34;;;;;;;12.27;6.40;;;5.10;99.90;;;;;;5017222;28;20810;-72
2022/10/09 06:04:00;;;;;;;17.67;6.27;;;5.10;99.90;;;;;;5019420;28;20789;-72
2022/10/09 06:06:29;;;;;;;15.67;6.00;;;5.10;99.90;;;;;;5017719;28;20796;-72
2022/10/09 06:08:56;;;;;;;11.13;6.20;;;5.20;99.90;;;;;;5018354;28;20422;-71
2022/10/09 06:11:27;;;;;;;14.83;6.50;;;5.20;99.90;;;;;;5018307;28;20437;-72
2022/10/09 06:13:52;;;;;;;10.23;5.33;;;5.30;99.90;;;;;;5017384;28;20472;-71
2022/10/09 06:16:18;;;;;;;14.33;6.27;;;5.40;99.90;;;;;;5018809;28;20757;-72
2022/10/09 06:18:46;;;;;;;8.90;5.33;;;5.60;99.90;;;;;;5015654;28;20819;-72
2022/10/09 06:21:12;;;;;;;8.70;5.57;;;5.80;99.90;;;;;;5012576;28;20211;-72
2022/10/09 06:23:37;;;;;;;10.47;5.50;;;5.90;99.90;;;;;;5018914;28;20835;-71
2022/10/09 06:26:08;;;;;;;6.50;5.13;;;6.10;99.90;;;;;;5017436;28;20430;-71
2022/10/09 06:28:34;;;;;;;9.27;5.27;;;6.20;99.90;;;;;;5001349;28;20562;-72
2022/10/09 06:31:15;;;;;;;7.97;5.73;;;6.40;99.90;;;;;;5014835;28;20928;-72
2022/10/09 06:33:42;;;;;;;7.47;5.43;;;6.50;99.90;;;;;;5014612;28;20470;-72
2022/10/09 06:36:25;;;;;;;5.60;4.80;;;6.80;99.90;;;;;;5015421;28;20438;-72
2022/10/09 06:38:51;;;;;;;10.03;4.90;;;7.30;99.90;;;;;;5008422;28;20540;-72
2022/10/09 06:41:22;;;;;;;11.10;5.17;;;8.20;99.90;;;;;;5005604;28;20988;-73
2022/10/09 06:43:53;;;;;;;5.20;4.23;;;8.60;99.90;;;;;;5006931;28;20593;-72
2022/10/09 06:46:21;;;;;;;5.77;4.00;;;9.90;99.90;;;;;;5013761;28;20456;-72
2022/10/09 06:48:47;;;;;;;5.77;4.10;;;11.70;99.90;;;;;;5018132;28;20468;-72
2022/10/09 06:51:15;;;;;;;3.87;3.57;;;13.40;99.90;;;;;;5020354;28;20441;-72
2022/10/09 06:53:43;;;;;;;3.10;2.83;;;15.00;99.90;;;;;;5024178;28;20315;-70
2022/10/09 06:56:10;;;;;;;4.37;3.97;;;16.00;99.90;;;;;;5020835;28;20477;-72
2022/10/09 06:58:37;;;;;;;6.47;3.10;;;16.90;99.90;;;;;;5000269;28;20470;-73
2022/10/09 07:01:09;;;;;;;3.70;3.40;;;17.60;99.90;;;;;;5018040;28;20476;-73
2022/10/09 07:03:36;;;;;;;5.30;3.20;;;18.30;99.90;;;;;;5013185;28;20472;-73
2022/10/09 07:06:22;;;;;;;4.17;3.77;;;18.80;99.90;;;;;;5020946;28;20448;-73
2022/10/09 07:08:50;;;;;;;3.97;3.57;;;19.00;99.90;;;;;;5016618;28;20457;-71
2022/10/09 07:11:22;;;;;;;5.83;3.40;;;19.80;99.90;;;;;;5006813;28;20473;-73
2022/10/09 07:13:50;;;;;;;3.73;3.43;;;20.20;99.90;;;;;;5013667;28;20547;-73
2022/10/09 07:16:24;;;;;;;6.20;3.60;;;20.40;99.90;;;;;;5007212;28;20897;-73
2022/10/09 07:18:50;;;;;;;5.40;4.00;;;20.00;99.90;;;;;;5024468;28;20426;-73
2022/10/09 07:21:15;;;;;;;6.30;3.93;;;20.20;99.90;;;;;;5021272;28;20524;-73
2022/10/09 07:23:42;;;;;;;6.03;4.43;;;20.30;99.90;;;;;;5016286;28;20285;-72
2022/10/09 07:26:10;;;;;;;6.07;5.47;;;19.80;99.90;;;;;;5011308;28;20664;-72
2022/10/09 07:28:36;;;;;;;7.73;5.03;;;19.40;99.90;;;;;;5011350;28;20959;-72
2022/10/09 07:31:03;;;;;;;8.30;4.53;;;18.70;99.90;;;;;;5008582;28;20445;-72
2022/10/09 07:33:28;;;;;;;5.83;4.80;;;18.60;99.90;;;;;;5010414;28;20576;-72
2022/10/09 07:35:55;;;;;;;9.27;4.50;;;18.30;99.90;;;;;;5011479;28;20417;-72
2022/10/09 07:38:21;;;;;;;7.30;5.27;;;17.50;99.90;;;;;;5023879;28;20178;-73
2022/10/09 07:40:47;;;;;;;7.70;4.50;;;17.40;99.90;;;;;;5025544;28;20463;-73
2022/10/09 07:43:13;;;;;;;6.57;4.37;;;17.10;99.90;;;;;;5013775;28;20769;-73
2022/10/09 07:45:38;;;;;;;7.90;4.30;;;17.10;99.90;;;;;;5006704;28;20195;-71
2022/10/09 07:48:04;;;;;;;8.67;4.13;;;17.00;99.90;;;;;;5023218;28;20186;-71
2022/10/09 07:50:29;;;;;;;5.33;4.30;;;17.10;99.90;;;;;;5024594;28;20182;-70
2022/10/09 07:52:55;;;;;;;4.70;3.83;;;17.40;99.90;;;;;;5012511;28;20257;-70
2022/10/09 07:55:20;;;;;;;3.33;3.03;;;17.30;99.90;;;;;;5008888;28;20190;-70
2022/10/09 07:57:46;;;;;;;3.30;2.60;;;17.30;99.90;;;;;;5012872;28;20237;-71
2022/10/09 08:00:12;;;;;;;4.67;3.23;;;17.40;99.90;;;;;;5024028;28;20650;-70
2022/10/09 08:02:37;;;;;;;9.33;3.50;;;17.50;99.90;;;;;;5021451;28;20206;-70
2022/10/09 08:05:03;;;;;;;4.50;3.70;;;17.70;99.90;;;;;;5022361;28;20221;-70
2022/10/09 08:07:28;;;;;;;4.90;3.27;;;17.60;99.90;;;;;;5017763;28;20190;-72
2022/10/09 08:09:54;;;;;;;7.40;4.10;;;17.60;99.90;;;;;;5019422;28;20195;-70
2022/10/09 08:12:19;;;;;;;5.93;3.63;;;17.40;99.90;;;;;;5018624;28;20336;-70
2022/10/09 08:14:47;;;;;;;12.07;3.47;;;17.30;99.90;;;;;;5016984;28;20236;-71
2022/10/09 08:17:13;;;;;;;5.43;4.23;;;17.50;99.90;;;;;;5014772;28;20237;-72
2022/10/09 08:19:39;;;;;;;5.10;4.00;;;17.60;99.90;;;;;;5020675;28;20441;-70
2022/10/09 08:22:04;;;;;;;8.27;3.30;;;17.80;99.90;;;;;;5015105;28;20481;-70
2022/10/09 08:24:30;;;;;;;4.43;3.07;;;17.30;99.90;;;;;;5012043;28;20233;-70
2022/10/09 08:26:56;;;;;;;10.17;3.60;;;17.40;99.90;;;;;;5013463;28;20190;-72
2022/10/09 08:29:21;;;;;;;6.93;3.20;;;17.50;99.90;;;;;;5007556;28;20223;-71
2022/10/09 08:31:47;;;;;;;4.23;3.50;;;17.80;99.90;;;;;;5013876;28;20215;-71
2022/10/09 08:34:12;;;;;;;4.53;3.17;;;18.00;99.90;;;;;;5017048;28;20198;-71
2022/10/09 08:36:38;;;;;;;4.80;3.17;;;18.00;99.90;;;;;;5016565;28;20209;-70
2022/10/09 08:39:03;;;;;;;3.83;3.17;;;18.20;99.90;;;;;;5009713;28;20178;-70
2022/10/09 08:41:41;;;;;;;3.00;2.67;;;18.30;99.90;;;;;;5012789;28;20214;-70
2022/10/09 08:44:17;;;;;;;3.20;2.90;;;18.10;99.90;;;;;;5015055;28;20208;-70
2022/10/09 08:46:52;;;;;;;9.67;3.63;;;18.40;99.90;;;;;;5009328;28;20454;-70
2022/10/09 08:49:21;;;;;;;4.27;2.97;;;18.60;99.90;;;;;;5012891;28;20412;-71
2022/10/09 08:51:47;;;;;;;7.90;3.00;;;18.40;99.90;;;;;;5018790;28;20506;-70
2022/10/09 08:54:23;;;;;;;4.40;3.87;;;18.40;99.90;;;;;;5010275;28;21587;-70
2022/10/09 08:56:50;;;;;;;10.40;3.30;;;18.70;99.90;;;;;;5012026;28;20182;-69
2022/10/09 08:59:16;;;;;;;4.33;2.90;;;18.90;99.90;;;;;;5013476;28;20985;-71
2022/10/09 09:01:49;;;;;;;4.40;3.23;;;19.10;99.90;;;;;;5019327;28;20497;-70
2022/10/09 09:04:37;;;;;;;6.47;3.00;;;19.20;99.90;;;;;;5014949;28;20182;-70
2022/10/09 09:07:12;;;;;;;4.70;2.63;;;19.30;99.90;;;;;;5007820;28;20422;-72
2022/10/09 09:09:51;;;;;;;5.00;2.40;;;19.50;99.90;;;;;;5019899;28;20769;-70
2022/10/09 09:12:33;;;;;;;5.13;3.10;;;19.90;99.90;;;;;;5008281;28;20848;-71
2022/10/09 09:15:37;;;;;;;3.70;2.50;;;20.10;99.90;;;;;;5015477;28;20430;-70
2022/10/09 09:18:47;;;;;;;4.77;2.77;;;20.00;99.90;;;;;;5009766;28;20790;-72
2022/10/09 09:21:34;;;;;;;2.30;2.20;;;20.20;99.90;;;;;;5014523;28;20642;-72
2022/10/09 09:24:04;;;;;;;2.83;2.60;;;20.50;99.90;;;;;;5019891;28;20776;-71
2022/10/09 09:26:29;;;;;;;2.77;2.13;;;20.80;99.90;;;;;;5009514;28;20433;-70
2022/10/09 09:29:01;;;;;;;5.07;2.53;;;20.90;99.90;;;;;;5016600;28;20417;-71
2022/10/09 09:31:35;;;;;;;5.83;2.77;;;20.80;99.90;;;;;;5008858;28;20640;-71
2022/10/09 09:34:11;;;;;;;2.90;2.70;;;20.90;99.90;;;;;;5016965;28;20568;-71
2022/10/09 09:36:54;;;;;;;2.57;2.10;;;20.90;99.90;;;;;;5003752;28;20765;-68
2022/10/09 09:39:22;;;;;;;3.37;2.10;;;20.70;99.90;;;;;;5011602;28;20543;-70
2022/10/09 09:41:48;;;;;;;3.50;1.93;;;20.60;99.90;;;;;;5010233;28;20599;-70
2022/10/09 09:44:16;;;;;;;4.00;2.60;;;20.90;99.90;;;;;;5009826;28;20536;-70
2022/10/09 09:46:44;;;;;;;5.90;2.20;;;21.00;99.90;;;;;;5015604;28;20193;-70
2022/10/09 09:49:36;;;;;;;3.43;2.20;;;21.10;99.90;;;;;;5008036;28;20409;-71
2022/10/09 09:52:01;;;;;;;3.43;1.63;;;21.30;99.90;;;;;;5014611;28;20809;-70
2022/10/09 09:54:29;;;;;;;3.43;1.47;;;21.60;99.90;;;;;;5014607;28;20434;-71
2022/10/09 09:56:57;;;;;;;2.13;1.60;;;21.90;99.90;;;;;;5014425;28;20182;-71
2022/10/09 09:59:28;;;;;;;3.33;1.50;;;21.90;99.90;;;;;;5010631;28;20511;-70
2022/10/09 10:02:13;;;;;;;5.67;1.63;;;22.00;99.90;;;;;;5015398;28;20802;-71
2022/10/09 10:04:50;;;;;;;8.10;1.90;;;21.80;99.90;;;;;;5008301;28;20422;-70
2022/10/09 10:07:34;;;;;;;3.30;2.27;;;21.20;99.90;;;;;;4996870;28;20428;-70
2022/10/09 10:10:02;;;;;;;2.27;1.83;;;21.10;99.90;;;;;;5014888;28;20416;-70
2022/10/09 10:12:28;;;;;;;3.33;1.80;;;20.90;99.90;;;;;;5007990;28;20470;-70
2022/10/09 10:14:54;;;;;;;8.43;2.50;;;21.00;99.90;;;;;;5015610;28;20433;-72
2022/10/09 10:17:27;;;;;;;3.70;1.60;;;21.10;99.90;;;;;;5013599;28;20524;-71
2022/10/09 10:19:53;;;;;;;1.80;1.70;;;21.30;99.90;;;;;;5018176;28;20179;-71
2022/10/09 10:22:25;;;;;;;2.60;1.70;;;21.00;99.90;;;;;;5013390;28;20441;-71
2022/10/09 10:24:55;;;;;;;2.60;2.33;;;21.20;99.90;;;;;;5019611;28;20182;-70
2022/10/09 10:27:20;;;;;;;3.53;1.80;;;21.70;99.90;;;;;;5011852;28;20414;-70
2022/10/09 10:29:48;;;;;;;1.73;1.40;;;21.40;99.90;;;;;;5015644;28;20433;-70
2022/10/09 10:32:45;;;;;;;2.17;1.67;;;21.60;99.90;;;;;;5012175;28;20209;-68
2022/10/09 10:35:16;;;;;;;3.33;1.67;;;21.60;99.90;;;;;;5021316;28;20419;-69
2022/10/09 10:38:05;;;;;;;3.97;1.67;;;21.70;99.90;;;;;;5005027;28;20945;-68
2022/10/09 10:40:48;;;;;;;3.37;1.67;;;22.00;99.90;;;;;;5007849;28;20424;-72
2022/10/09 10:43:41;;;;;;;3.20;2.03;;;21.60;99.90;;;;;;4995820;28;20424;-70
2022/10/09 10:46:30;;;;;;;1.70;1.60;;;21.00;99.90;;;;;;5014954;28;20424;-70
2022/10/09 10:48:58;;;;;;;2.37;1.93;;;20.60;99.90;;;;;;5022056;28;20432;-68
2022/10/09 10:51:49;;;;;;;4.83;1.80;;;20.80;99.90;;;;;;5014956;28;20816;-70
2022/10/09 10:54:23;;;;;;;4.37;1.73;;;20.80;99.90;;;;;;5012672;28;21240;-71
2022/10/09 10:57:03;;;;;;;2.20;1.20;;;21.00;99.90;;;;;;5016315;28;20966;-73
2022/10/09 10:59:36;;;;;;;2.43;1.10;;;21.00;99.90;;;;;;5008908;28;20407;-70
2022/10/09 11:02:29;;;;;;;4.80;1.30;;;21.00;99.90;;;;;;5013015;28;21007;-71
2022/10/09 11:05:10;;;;;;;2.13;1.50;;;20.90;99.90;;;;;;5009443;28;20409;-69
2022/10/09 11:08:02;;;;;;;4.37;2.10;;;20.70;99.90;;;;;;5012831;28;20410;-70
2022/10/09 11:11:09;;;;;;;2.93;1.23;;;20.60;99.90;;;;;;5004951;28;20433;-74
2022/10/09 11:14:05;;;;;;;3.13;1.90;;;20.10;99.90;;;;;;4983389;28;20492;-74
2022/10/09 11:16:45;;;;;;;1.60;1.50;;;20.10;99.90;;;;;;5010649;28;20462;-74
2022/10/09 11:19:35;;;;;;;2.60;1.93;;;20.10;99.90;;;;;;5012240;28;20419;-74
2022/10/09 11:22:33;;;;;;;2.40;1.57;;;19.80;99.90;;;;;;5003572;28;20450;-73
2022/10/09 11:25:25;;;;;;;2.30;1.20;;;19.60;99.90;;;;;;5011749;28;20465;-73
2022/10/09 11:28:09;;;;;;;3.70;1.40;;;19.60;99.90;;;;;;5007611;28;20420;-72
2022/10/09 11:30:49;;;;;;;3.70;1.73;;;19.60;99.90;;;;;;5017875;28;20416;-70
2022/10/09 11:33:37;;;;;;;3.90;1.53;;;19.60;99.90;;;;;;5015772;28;20461;-74
2022/10/09 11:36:14;;;;;;;3.43;1.20;;;19.80;99.90;;;;;;5012882;28;20429;-73
2022/10/09 11:38:45;;;;;;;5.30;1.30;;;19.70;99.90;;;;;;5013216;28;20829;-73
2022/10/09 11:41:11;;;;;;;2.93;1.30;;;19.50;99.90;;;;;;5011091;28;20486;-74
2022/10/09 11:44:06;;;;;;;3.23;1.20;;;19.40;99.90;;;;;;5011838;28;20418;-73
2022/10/09 11:46:52;;;;;;;2.27;1.47;;;19.30;99.90;;;;;;5018998;28;20206;-74
2022/10/09 11:49:39;;;;;;;2.10;1.23;;;19.30;99.90;;;;;;5013910;28;20430;-73
2022/10/09 11:52:40;;;;;;;2.60;1.20;;;19.10;99.90;;;;;;5022244;28;20441;-73
2022/10/09 11:55:20;;;;;;;1.80;1.13;;;19.00;99.90;;;;;;5020742;28;20418;-73
2022/10/09 11:57:46;;;;;;;4.00;1.60;;;18.90;99.90;;;;;;5021060;28;20507;-74
2022/10/09 12:00:12;;;;;;;2.70;1.20;;;18.90;99.90;;;;;;5022484;28;20500;-74
2022/10/09 12:02:39;;;;;;;1.60;1.50;;;18.70;99.90;;;;;;5022830;28;21021;-73
2022/10/09 12:05:40;;;;;;;2.10;1.10;;;18.60;99.90;;;;;;5020078;28;20449;-73
2022/10/09 12:08:23;;;;;;;2.43;1.53;;;18.90;99.90;;;;;;5000270;28;20433;-74
2022/10/09 12:10:53;;;;;;;2.23;0.93;;;18.90;99.90;;;;;;5010450;28;20417;-73
2022/10/09 12:13:30;;;;;;;4.63;1.40;;;18.70;99.90;;;;;;5015768;28;21027;-73
2022/10/09 12:15:58;;;;;;;3.60;1.10;;;18.70;99.90;;;;;;5011105;28;20424;-73
2022/10/09 12:18:33;;;;;;;2.23;1.20;;;18.40;99.90;;;;;;5009238;28;20425;-72
2022/10/09 12:21:02;;;;;;;2.50;1.20;;;18.40;99.90;;;;;;5021468;28;20466;-73
2022/10/09 12:23:32;;;;;;;1.93;1.50;;;18.30;99.90;;;;;;5016258;28;20414;-73
2022/10/09 12:25:58;;;;;;;2.20;1.50;;;18.20;99.90;;;;;;5011014;28;20433;-73
2022/10/09 12:28:33;;;;;;;3.67;1.60;;;18.20;99.90;;;;;;5008735;28;20421;-72
2022/10/09 12:31:02;;;;;;;1.47;1.13;;;18.30;99.90;;;;;;5008456;28;20483;-73
2022/10/09 12:33:38;;;;;;;5.30;2.00;;;18.30;99.90;;;;;;5013505;28;21004;-73
2022/10/09 12:36:12;;;;;;;1.70;1.20;;;18.30;99.90;;;;;;5009799;28;20873;-74
2022/10/09 12:38:38;;;;;;;4.40;1.40;;;18.00;99.90;;;;;;5010877;28;20460;-73
2022/10/09 12:41:07;;;;;;;2.20;1.70;;;17.90;99.90;;;;;;5009907;28;21150;-73
2022/10/09 12:43:33;;;;;;;2.60;1.50;;;17.90;99.90;;;;;;5010717;28;20190;-73
2022/10/09 12:45:59;;;;;;;3.37;1.33;;;18.00;99.90;;;;;;5010839;28;20429;-74
2022/10/09 12:48:26;;;;;;;1.77;1.40;;;18.00;99.90;;;;;;5009238;28;20487;-74
2022/10/09 12:50:53;;;;;;;2.10;1.10;;;18.00;99.90;;;;;;5010467;28;20843;-73
2022/10/09 12:53:23;;;;;;;3.03;1.70;;;17.90;99.90;;;;;;5015237;28;20603;-73
2022/10/09 12:55:59;;;;;;;1.93;1.33;;;17.90;99.90;;;;;;5009771;28;20433;-72
2022/10/09 12:58:38;;;;;;;1.63;1.43;;;18.00;99.90;;;;;;5008430;28;20505;-72
2022/10/09 13:01:06;;;;;;;1.83;1.67;;;17.90;99.90;;;;;;5007123;28;20437;-73
2022/10/09 13:03:33;;;;;;;1.57;1.47;;;18.00;99.90;;;;;;5016307;28;20416;-73
2022/10/09 13:06:00;;;;;;;3.03;1.30;;;18.00;99.90;;;;;;5013057;28;20425;-73
2022/10/09 13:08:29;;;;;;;1.20;1.00;;;18.10;99.90;;;;;;5013666;28;20421;-74
2022/10/09 13:11:17;;;;;;;3.17;1.73;;;17.90;99.90;;;;;;5008606;28;20503;-74
2022/10/09 13:13:51;;;;;;;6.93;1.30;;;17.80;99.90;;;;;;5022815;28;20475;-73
2022/10/09 13:16:17;;;;;;;2.63;1.10;;;17.90;99.90;;;;;;5015920;28;20429;-73
2022/10/09 13:18:53;;;;;;;2.10;1.20;;;17.90;99.90;;;;;;5011474;28;20914;-72
2022/10/09 13:21:25;;;;;;;1.43;1.33;;;17.80;99.90;;;;;;5018186;28;20434;-74
2022/10/09 13:23:51;;;;;;;5.30;1.57;;;17.80;99.90;;;;;;5016173;28;20980;-73
2022/10/09 13:26:27;;;;;;;6.00;1.73;;;17.80;99.90;;;;;;5008192;28;20422;-73
2022/10/09 13:28:55;;;;;;;1.10;0.90;;;17.80;99.90;;;;;;5013339;28;20186;-73
2022/10/09 13:31:21;;;;;;;1.83;1.20;;;17.80;99.90;;;;;;5019145;28;20475;-73
2022/10/09 13:33:47;;;;;;;2.20;1.07;;;17.80;99.90;;;;;;5015348;28;20468;-73
2022/10/09 13:36:15;;;;;;;3.47;0.90;;;17.80;99.90;;;;;;5007290;28;20863;-73
2022/10/09 13:38:40;;;;;;;2.97;1.33;;;17.70;99.90;;;;;;5010319;28;20952;-73
2022/10/09 13:41:08;;;;;;;3.80;1.43;;;17.60;99.90;;;;;;5006741;28;20516;-73
2022/10/09 13:43:34;;;;;;;4.70;3.17;;;17.40;99.90;;;;;;5008643;28;20694;-71
2022/10/09 13:45:59;;;;;;;5.67;3.80;;;17.40;99.90;;;;;;5006822;28;20456;-73
2022/10/09 13:48:25;;;;;;;2.00;1.67;;;17.30;99.90;;;;;;5007604;28;20206;-73
2022/10/09 13:50:51;;;;;;;1.63;1.53;;;17.40;99.90;;;;;;5012579;28;20225;-73
2022/10/09 13:53:17;;;;;;;3.23;1.10;;;17.40;99.90;;;;;;5026530;28;20733;-74
2022/10/09 13:55:42;;;;;;;1.80;1.27;;;17.50;99.90;;;;;;5026603;28;20834;-74
2022/10/09 13:58:08;;;;;;;1.50;1.40;;;17.50;99.90;;;;;;5018389;28;20558;-74
2022/10/09 14:00:35;;;;;;;2.23;1.93;;;17.50;99.90;;;;;;5011784;28;20174;-72
2022/10/09 14:03:01;;;;;;;2.23;1.40;;;17.50;99.90;;;;;;5024596;28;20273;-73
2022/10/09 14:05:27;;;;;;;3.27;1.23;;;17.40;99.90;;;;;;5022231;28;20496;-71
2022/10/09 14:07:53;;;;;;;2.00;0.90;;;17.30;99.90;;;;;;5023622;28;20205;-72
2022/10/09 14:10:21;;;;;;;1.60;1.10;;;17.20;99.90;;;;;;5026382;28;20584;-72
2022/10/09 14:12:47;;;;;;;2.23;1.30;;;17.20;99.90;;;;;;5018435;28;20203;-73
2022/10/09 14:15:13;;;;;;;5.13;0.90;;;17.10;99.90;;;;;;5019413;28;20419;-73
2022/10/09 14:17:38;;;;;;;4.70;1.10;;;17.20;99.90;;;;;;5015102;28;20413;-73
2022/10/09 14:20:05;;;;;;;4.83;1.00;;;17.20;99.90;;;;;;5014435;28;20179;-72
2022/10/09 14:22:31;;;;;;;3.47;1.10;;;17.20;99.90;;;;;;5015616;28;20194;-74
2022/10/09 14:24:56;;;;;;;6.63;1.73;;;17.30;99.90;;;;;;5010963;28;20433;-73
2022/10/09 14:27:22;;;;;;;2.80;1.70;;;17.20;99.90;;;;;;5015111;28;20190;-73
2022/10/09 14:29:47;;;;;;;2.83;1.10;;;17.20;99.90;;;;;;5004510;28;20186;-73
2022/10/09 14:32:13;;;;;;;5.03;1.40;;;17.20;99.90;;;;;;5007700;28;20297;-73
2022/10/09 14:34:39;;;;;;;2.63;1.50;;;17.20;99.90;;;;;;5007909;28;20178;-73
2022/10/09 14:37:04;;;;;;;2.97;1.23;;;17.20;99.90;;;;;;5006442;28;20183;-72